sensor_id;sensor_type;location;lat;lon;timestamp;P1;durP1;ratioP1;P2;durP2;ratioP2
870;SDS011;422;51.280;7.236;2023-11-18T00:00:01;33.87;;;19.50;;
870;SDS011;422;51.280;7.236;2023-11-18T00:02:36;29.97;;;20.60;;
870;SDS011;422;51.280;7.236;2023-11-18T00:05:04;28.97;;;19.70;;
870;SDS011;422;51.280;7.236;2023-11-18T00:07:34;31.70;;;20.50;;
870;SDS011;422;51.280;7.236;2023-11-18T00:10:01;30.97;;;19.07;;
870;SDS011;422;51.280;7.236;2023-11-18T00:12:29;29.27;;;17.93;;
870;SDS011;422;51.280;7.236;2023-11-18T00:14:57;26.97;;;19.13;;
870;SDS011;422;51.280;7.236;2023-11-18T00:17:26;30.97;;;19.93;;
870;SDS011;422;51.280;7.236;2023-11-18T00:19:53;28.63;;;18.47;;
870;SDS011;422;51.280;7.236;2023-11-18T00:22:21;32.10;;;18.20;;
870;SDS011;422;51.280;7.236;2023-11-18T00:24:48;28.03;;;18.87;;
870;SDS011;422;51.280;7.236;2023-11-18T00:27:16;30.47;;;19.97;;
870;SDS011;422;51.280;7.236;2023-11-18T00:29:43;27.10;;;18.50;;
870;SDS011;422;51.280;7.236;2023-11-18T00:32:11;25.90;;;19.77;;
870;SDS011;422;51.280;7.236;2023-11-18T00:34:39;31.83;;;20.17;;
870;SDS011;422;51.280;7.236;2023-11-18T00:37:07;30.77;;;19.43;;
870;SDS011;422;51.280;7.236;2023-11-18T00:39:35;28.40;;;19.00;;
870;SDS011;422;51.280;7.236;2023-11-18T00:42:02;26.97;;;18.87;;
870;SDS011;422;51.280;7.236;2023-11-18T00:44:30;29.67;;;20.83;;
870;SDS011;422;51.280;7.236;2023-11-18T00:46:58;30.13;;;20.30;;
870;SDS011;422;51.280;7.236;2023-11-18T00:49:26;29.20;;;19.97;;
870;SDS011;422;51.280;7.236;2023-11-18T00:51:55;33.00;;;23.60;;
870;SDS011;422;51.280;7.236;2023-11-18T00:54:22;31.80;;;23.10;;
870;SDS011;422;51.280;7.236;2023-11-18T00:56:49;29.70;;;20.37;;
870;SDS011;422;51.280;7.236;2023-11-18T00:59:17;26.90;;;19.90;;
870;SDS011;422;51.280;7.236;2023-11-18T01:01:45;30.20;;;19.27;;
870;SDS011;422;51.280;7.236;2023-11-18T01:04:14;29.30;;;19.40;;
870;SDS011;422;51.280;7.236;2023-11-18T01:06:42;30.53;;;21.07;;
870;SDS011;422;51.280;7.236;2023-11-18T01:09:10;28.30;;;18.87;;
870;SDS011;422;51.280;7.236;2023-11-18T01:11:38;31.90;;;21.80;;
870;SDS011;422;51.280;7.236;2023-11-18T01:14:05;31.60;;;20.97;;
870;SDS011;422;51.280;7.236;2023-11-18T01:16:33;29.43;;;20.07;;
870;SDS011;422;51.280;7.236;2023-11-18T01:19:00;29.27;;;20.77;;
870;SDS011;422;51.280;7.236;2023-11-18T01:21:34;26.70;;;18.90;;
870;SDS011;422;51.280;7.236;2023-11-18T01:24:02;27.00;;;18.87;;
870;SDS011;422;51.280;7.236;2023-11-18T01:26:32;27.00;;;18.10;;
870;SDS011;422;51.280;7.236;2023-11-18T01:29:02;26.60;;;18.57;;
870;SDS011;422;51.280;7.236;2023-11-18T01:31:29;24.27;;;18.60;;
870;SDS011;422;51.280;7.236;2023-11-18T01:33:57;23.60;;;18.10;;
870;SDS011;422;51.280;7.236;2023-11-18T01:36:25;25.93;;;18.67;;
870;SDS011;422;51.280;7.236;2023-11-18T01:38:52;28.10;;;19.37;;
870;SDS011;422;51.280;7.236;2023-11-18T01:41:20;24.23;;;17.07;;
870;SDS011;422;51.280;7.236;2023-11-18T01:43:49;26.10;;;17.53;;
870;SDS011;422;51.280;7.236;2023-11-18T01:46:16;29.23;;;19.00;;
870;SDS011;422;51.280;7.236;2023-11-18T01:48:45;22.77;;;17.23;;
870;SDS011;422;51.280;7.236;2023-11-18T01:51:12;25.60;;;18.10;;
870;SDS011;422;51.280;7.236;2023-11-18T01:53:40;28.20;;;19.17;;
870;SDS011;422;51.280;7.236;2023-11-18T01:56:10;27.20;;;16.53;;
870;SDS011;422;51.280;7.236;2023-11-18T01:58:37;22.37;;;17.60;;
870;SDS011;422;51.280;7.236;2023-11-18T02:01:07;22.80;;;16.67;;
870;SDS011;422;51.280;7.236;2023-11-18T02:03:35;25.03;;;18.33;;
870;SDS011;422;51.280;7.236;2023-11-18T02:06:03;24.80;;;16.70;;
870;SDS011;422;51.280;7.236;2023-11-18T02:08:32;27.60;;;18.23;;
870;SDS011;422;51.280;7.236;2023-11-18T02:11:04;22.03;;;17.30;;
870;SDS011;422;51.280;7.236;2023-11-18T02:13:40;25.10;;;17.63;;
870;SDS011;422;51.280;7.236;2023-11-18T02:16:12;24.73;;;16.90;;
870;SDS011;422;51.280;7.236;2023-11-18T02:18:42;25.53;;;18.63;;
870;SDS011;422;51.280;7.236;2023-11-18T02:21:11;23.30;;;16.83;;
870;SDS011;422;51.280;7.236;2023-11-18T02:23:40;25.77;;;18.60;;
870;SDS011;422;51.280;7.236;2023-11-18T02:26:09;25.63;;;17.50;;
870;SDS011;422;51.280;7.236;2023-11-18T02:28:36;26.93;;;17.53;;
870;SDS011;422;51.280;7.236;2023-11-18T02:31:05;25.57;;;17.63;;
870;SDS011;422;51.280;7.236;2023-11-18T02:33:40;22.83;;;16.63;;
870;SDS011;422;51.280;7.236;2023-11-18T02:36:18;30.93;;;19.23;;
870;SDS011;422;51.280;7.236;2023-11-18T02:38:50;25.80;;;18.87;;
870;SDS011;422;51.280;7.236;2023-11-18T02:41:23;25.63;;;18.07;;
870;SDS011;422;51.280;7.236;2023-11-18T02:43:54;24.30;;;18.23;;
870;SDS011;422;51.280;7.236;2023-11-18T02:46:23;27.57;;;19.67;;
870;SDS011;422;51.280;7.236;2023-11-18T02:48:53;24.70;;;18.30;;
870;SDS011;422;51.280;7.236;2023-11-18T02:51:20;22.57;;;17.90;;
870;SDS011;422;51.280;7.236;2023-11-18T02:53:47;26.10;;;18.70;;
870;SDS011;422;51.280;7.236;2023-11-18T02:56:15;25.90;;;17.97;;
870;SDS011;422;51.280;7.236;2023-11-18T02:58:45;24.77;;;19.30;;
870;SDS011;422;51.280;7.236;2023-11-18T03:01:12;25.13;;;19.10;;
870;SDS011;422;51.280;7.236;2023-11-18T03:03:40;24.27;;;17.23;;
870;SDS011;422;51.280;7.236;2023-11-18T03:06:07;23.67;;;17.50;;
870;SDS011;422;51.280;7.236;2023-11-18T03:08:36;26.73;;;18.73;;
870;SDS011;422;51.280;7.236;2023-11-18T03:11:05;25.40;;;18.90;;
870;SDS011;422;51.280;7.236;2023-11-18T03:13:34;23.77;;;17.47;;
870;SDS011;422;51.280;7.236;2023-11-18T03:16:05;25.10;;;17.27;;
870;SDS011;422;51.280;7.236;2023-11-18T03:18:37;24.63;;;17.00;;
870;SDS011;422;51.280;7.236;2023-11-18T03:21:05;24.70;;;16.97;;
870;SDS011;422;51.280;7.236;2023-11-18T03:23:37;23.43;;;15.57;;
870;SDS011;422;51.280;7.236;2023-11-18T03:26:06;24.50;;;17.13;;
870;SDS011;422;51.280;7.236;2023-11-18T03:28:33;23.30;;;17.07;;
870;SDS011;422;51.280;7.236;2023-11-18T03:31:01;23.57;;;17.00;;
870;SDS011;422;51.280;7.236;2023-11-18T03:33:30;21.70;;;15.83;;
870;SDS011;422;51.280;7.236;2023-11-18T03:35:57;22.63;;;15.67;;
870;SDS011;422;51.280;7.236;2023-11-18T03:38:25;24.90;;;16.77;;
870;SDS011;422;51.280;7.236;2023-11-18T03:40:53;21.87;;;15.80;;
870;SDS011;422;51.280;7.236;2023-11-18T03:43:22;22.37;;;14.53;;
870;SDS011;422;51.280;7.236;2023-11-18T03:45:49;22.90;;;15.40;;
870;SDS011;422;51.280;7.236;2023-11-18T03:48:18;22.83;;;15.87;;
870;SDS011;422;51.280;7.236;2023-11-18T03:50:46;21.83;;;15.30;;
870;SDS011;422;51.280;7.236;2023-11-18T03:53:13;22.80;;;17.00;;
870;SDS011;422;51.280;7.236;2023-11-18T03:55:40;25.10;;;16.53;;
870;SDS011;422;51.280;7.236;2023-11-18T03:58:08;20.83;;;15.70;;
870;SDS011;422;51.280;7.236;2023-11-18T04:00:35;22.90;;;15.40;;
870;SDS011;422;51.280;7.236;2023-11-18T04:03:02;22.80;;;16.13;;
870;SDS011;422;51.280;7.236;2023-11-18T04:05:34;22.90;;;17.00;;
870;SDS011;422;51.280;7.236;2023-11-18T04:08:02;23.97;;;17.13;;
870;SDS011;422;51.280;7.236;2023-11-18T04:10:30;26.07;;;16.37;;
870;SDS011;422;51.280;7.236;2023-11-18T04:12:57;20.57;;;14.77;;
870;SDS011;422;51.280;7.236;2023-11-18T04:15:24;21.30;;;14.57;;
870;SDS011;422;51.280;7.236;2023-11-18T04:17:52;22.37;;;16.00;;
870;SDS011;422;51.280;7.236;2023-11-18T04:20:19;18.13;;;14.07;;
870;SDS011;422;51.280;7.236;2023-11-18T04:22:48;20.27;;;15.57;;
870;SDS011;422;51.280;7.236;2023-11-18T04:25:15;24.30;;;15.43;;
870;SDS011;422;51.280;7.236;2023-11-18T04:27:43;26.03;;;16.97;;
870;SDS011;422;51.280;7.236;2023-11-18T04:30:10;24.60;;;16.70;;
870;SDS011;422;51.280;7.236;2023-11-18T04:32:38;25.83;;;17.50;;
870;SDS011;422;51.280;7.236;2023-11-18T04:35:08;24.43;;;17.20;;
870;SDS011;422;51.280;7.236;2023-11-18T04:37:37;23.90;;;17.80;;
870;SDS011;422;51.280;7.236;2023-11-18T04:40:10;23.10;;;17.60;;
870;SDS011;422;51.280;7.236;2023-11-18T04:42:38;22.53;;;16.43;;
870;SDS011;422;51.280;7.236;2023-11-18T04:45:05;23.33;;;17.13;;
870;SDS011;422;51.280;7.236;2023-11-18T04:47:35;25.73;;;17.90;;
870;SDS011;422;51.280;7.236;2023-11-18T04:50:03;23.07;;;16.90;;
870;SDS011;422;51.280;7.236;2023-11-18T04:52:31;24.80;;;16.67;;
870;SDS011;422;51.280;7.236;2023-11-18T04:55:00;22.77;;;16.57;;
870;SDS011;422;51.280;7.236;2023-11-18T04:57:29;26.20;;;17.27;;
870;SDS011;422;51.280;7.236;2023-11-18T04:59:56;26.83;;;20.83;;
870;SDS011;422;51.280;7.236;2023-11-18T05:02:23;22.30;;;17.63;;
870;SDS011;422;51.280;7.236;2023-11-18T05:04:50;21.90;;;17.50;;
870;SDS011;422;51.280;7.236;2023-11-18T05:07:17;28.97;;;20.60;;
870;SDS011;422;51.280;7.236;2023-11-18T05:09:46;25.77;;;18.77;;
870;SDS011;422;51.280;7.236;2023-11-18T05:12:14;25.90;;;18.13;;
870;SDS011;422;51.280;7.236;2023-11-18T05:14:43;24.17;;;17.17;;
870;SDS011;422;51.280;7.236;2023-11-18T05:17:10;25.33;;;18.50;;
870;SDS011;422;51.280;7.236;2023-11-18T05:19:37;25.77;;;17.07;;
870;SDS011;422;51.280;7.236;2023-11-18T05:22:04;25.57;;;18.93;;
870;SDS011;422;51.280;7.236;2023-11-18T05:24:32;27.83;;;18.87;;
870;SDS011;422;51.280;7.236;2023-11-18T05:26:59;27.60;;;18.03;;
870;SDS011;422;51.280;7.236;2023-11-18T05:29:26;25.83;;;20.00;;
870;SDS011;422;51.280;7.236;2023-11-18T05:31:55;25.17;;;18.60;;
870;SDS011;422;51.280;7.236;2023-11-18T05:34:22;25.60;;;18.37;;
870;SDS011;422;51.280;7.236;2023-11-18T05:36:50;29.23;;;19.77;;
870;SDS011;422;51.280;7.236;2023-11-18T05:39:19;26.30;;;18.67;;
870;SDS011;422;51.280;7.236;2023-11-18T05:41:46;26.23;;;18.57;;
870;SDS011;422;51.280;7.236;2023-11-18T05:44:15;26.67;;;18.60;;
870;SDS011;422;51.280;7.236;2023-11-18T05:46:44;27.83;;;19.43;;
870;SDS011;422;51.280;7.236;2023-11-18T05:49:14;29.83;;;20.37;;
870;SDS011;422;51.280;7.236;2023-11-18T05:51:41;31.30;;;20.70;;
870;SDS011;422;51.280;7.236;2023-11-18T05:54:08;28.53;;;19.80;;
870;SDS011;422;51.280;7.236;2023-11-18T05:56:35;28.43;;;17.90;;
870;SDS011;422;51.280;7.236;2023-11-18T05:59:03;29.73;;;20.73;;
870;SDS011;422;51.280;7.236;2023-11-18T06:01:30;28.70;;;20.30;;
870;SDS011;422;51.280;7.236;2023-11-18T06:03:58;31.57;;;20.37;;
870;SDS011;422;51.280;7.236;2023-11-18T06:06:27;29.33;;;20.17;;
870;SDS011;422;51.280;7.236;2023-11-18T06:08:57;29.80;;;21.00;;
870;SDS011;422;51.280;7.236;2023-11-18T06:11:30;31.43;;;20.87;;
870;SDS011;422;51.280;7.236;2023-11-18T06:13:57;27.87;;;20.20;;
870;SDS011;422;51.280;7.236;2023-11-18T06:16:25;28.33;;;19.60;;
870;SDS011;422;51.280;7.236;2023-11-18T06:18:52;26.93;;;18.80;;
870;SDS011;422;51.280;7.236;2023-11-18T06:21:21;25.07;;;18.77;;
870;SDS011;422;51.280;7.236;2023-11-18T06:23:54;28.73;;;18.77;;
870;SDS011;422;51.280;7.236;2023-11-18T06:26:22;24.67;;;18.40;;
870;SDS011;422;51.280;7.236;2023-11-18T06:28:49;26.07;;;18.23;;
870;SDS011;422;51.280;7.236;2023-11-18T06:31:16;30.10;;;18.70;;
870;SDS011;422;51.280;7.236;2023-11-18T06:33:44;28.43;;;18.57;;
870;SDS011;422;51.280;7.236;2023-11-18T06:36:16;28.17;;;19.10;;
870;SDS011;422;51.280;7.236;2023-11-18T06:38:44;26.27;;;18.27;;
870;SDS011;422;51.280;7.236;2023-11-18T06:41:13;51.60;;;30.17;;
870;SDS011;422;51.280;7.236;2023-11-18T06:43:42;38.30;;;26.00;;
870;SDS011;422;51.280;7.236;2023-11-18T06:46:22;29.73;;;21.57;;
870;SDS011;422;51.280;7.236;2023-11-18T06:48:50;31.60;;;23.30;;
870;SDS011;422;51.280;7.236;2023-11-18T06:51:19;34.40;;;27.40;;
870;SDS011;422;51.280;7.236;2023-11-18T06:53:48;34.40;;;25.80;;
870;SDS011;422;51.280;7.236;2023-11-18T06:56:17;28.93;;;21.33;;
870;SDS011;422;51.280;7.236;2023-11-18T06:58:45;28.20;;;21.07;;
870;SDS011;422;51.280;7.236;2023-11-18T07:01:12;29.23;;;20.07;;
870;SDS011;422;51.280;7.236;2023-11-18T07:03:40;28.43;;;19.30;;
870;SDS011;422;51.280;7.236;2023-11-18T07:06:08;25.47;;;18.80;;
870;SDS011;422;51.280;7.236;2023-11-18T07:08:35;25.80;;;17.70;;
870;SDS011;422;51.280;7.236;2023-11-18T07:11:03;27.23;;;20.03;;
870;SDS011;422;51.280;7.236;2023-11-18T07:13:32;26.87;;;17.93;;
870;SDS011;422;51.280;7.236;2023-11-18T07:16:00;24.53;;;17.80;;
870;SDS011;422;51.280;7.236;2023-11-18T07:18:28;30.20;;;19.50;;
870;SDS011;422;51.280;7.236;2023-11-18T07:20:56;29.20;;;18.90;;
870;SDS011;422;51.280;7.236;2023-11-18T07:23:25;29.47;;;19.83;;
870;SDS011;422;51.280;7.236;2023-11-18T07:25:52;27.27;;;18.13;;
870;SDS011;422;51.280;7.236;2023-11-18T07:28:19;27.80;;;17.37;;
870;SDS011;422;51.280;7.236;2023-11-18T07:30:48;26.57;;;19.07;;
870;SDS011;422;51.280;7.236;2023-11-18T07:33:16;26.57;;;18.70;;
870;SDS011;422;51.280;7.236;2023-11-18T07:35:44;26.00;;;18.37;;
870;SDS011;422;51.280;7.236;2023-11-18T07:38:13;25.03;;;19.07;;
870;SDS011;422;51.280;7.236;2023-11-18T07:40:40;27.20;;;18.40;;
870;SDS011;422;51.280;7.236;2023-11-18T07:43:10;24.67;;;17.10;;
870;SDS011;422;51.280;7.236;2023-11-18T07:45:38;26.30;;;19.93;;
870;SDS011;422;51.280;7.236;2023-11-18T07:48:08;26.33;;;18.90;;
870;SDS011;422;51.280;7.236;2023-11-18T07:50:37;23.57;;;17.63;;
870;SDS011;422;51.280;7.236;2023-11-18T07:53:06;22.70;;;17.67;;
870;SDS011;422;51.280;7.236;2023-11-18T07:55:35;22.27;;;16.43;;
870;SDS011;422;51.280;7.236;2023-11-18T07:58:04;25.60;;;17.93;;
870;SDS011;422;51.280;7.236;2023-11-18T08:00:36;21.97;;;16.27;;
870;SDS011;422;51.280;7.236;2023-11-18T08:03:04;23.90;;;16.23;;
870;SDS011;422;51.280;7.236;2023-11-18T08:05:38;21.90;;;15.13;;
870;SDS011;422;51.280;7.236;2023-11-18T08:08:06;25.47;;;17.00;;
870;SDS011;422;51.280;7.236;2023-11-18T08:10:33;23.60;;;16.47;;
870;SDS011;422;51.280;7.236;2023-11-18T08:13:03;20.50;;;14.70;;
870;SDS011;422;51.280;7.236;2023-11-18T08:15:32;18.20;;;14.87;;
870;SDS011;422;51.280;7.236;2023-11-18T08:17:59;22.07;;;16.27;;
870;SDS011;422;51.280;7.236;2023-11-18T08:20:28;24.47;;;15.87;;
870;SDS011;422;51.280;7.236;2023-11-18T08:22:57;24.33;;;16.10;;
870;SDS011;422;51.280;7.236;2023-11-18T08:25:24;21.00;;;15.90;;
870;SDS011;422;51.280;7.236;2023-11-18T08:27:52;20.50;;;15.00;;
870;SDS011;422;51.280;7.236;2023-11-18T08:30:19;18.90;;;13.67;;
870;SDS011;422;51.280;7.236;2023-11-18T08:32:47;19.43;;;15.50;;
870;SDS011;422;51.280;7.236;2023-11-18T08:35:17;19.87;;;15.20;;
870;SDS011;422;51.280;7.236;2023-11-18T08:37:46;18.80;;;14.67;;
870;SDS011;422;51.280;7.236;2023-11-18T08:40:15;17.30;;;13.70;;
870;SDS011;422;51.280;7.236;2023-11-18T08:42:47;19.97;;;14.67;;
870;SDS011;422;51.280;7.236;2023-11-18T08:45:15;22.00;;;13.00;;
870;SDS011;422;51.280;7.236;2023-11-18T08:47:44;18.80;;;13.20;;
870;SDS011;422;51.280;7.236;2023-11-18T08:50:12;19.57;;;13.53;;
870;SDS011;422;51.280;7.236;2023-11-18T08:52:41;19.97;;;13.27;;
870;SDS011;422;51.280;7.236;2023-11-18T08:55:12;21.10;;;14.23;;
870;SDS011;422;51.280;7.236;2023-11-18T08:57:45;19.10;;;13.20;;
870;SDS011;422;51.280;7.236;2023-11-18T09:00:23;17.23;;;12.17;;
870;SDS011;422;51.280;7.236;2023-11-18T09:03:13;19.03;;;12.33;;
870;SDS011;422;51.280;7.236;2023-11-18T09:05:50;16.57;;;11.93;;
870;SDS011;422;51.280;7.236;2023-11-18T09:08:24;19.30;;;13.07;;
870;SDS011;422;51.280;7.236;2023-11-18T09:10:52;17.47;;;13.03;;
870;SDS011;422;51.280;7.236;2023-11-18T09:13:23;18.10;;;13.30;;
870;SDS011;422;51.280;7.236;2023-11-18T09:15:54;17.83;;;12.37;;
870;SDS011;422;51.280;7.236;2023-11-18T09:18:22;18.30;;;13.50;;
870;SDS011;422;51.280;7.236;2023-11-18T09:20:50;17.97;;;12.53;;
870;SDS011;422;51.280;7.236;2023-11-18T09:23:20;15.33;;;10.60;;
870;SDS011;422;51.280;7.236;2023-11-18T09:25:48;18.33;;;12.40;;
870;SDS011;422;51.280;7.236;2023-11-18T09:28:16;17.03;;;12.50;;
870;SDS011;422;51.280;7.236;2023-11-18T09:30:45;19.83;;;12.83;;
870;SDS011;422;51.280;7.236;2023-11-18T09:33:19;18.30;;;11.80;;
870;SDS011;422;51.280;7.236;2023-11-18T09:35:58;18.27;;;12.57;;
870;SDS011;422;51.280;7.236;2023-11-18T09:38:26;15.90;;;11.47;;
870;SDS011;422;51.280;7.236;2023-11-18T09:40:56;19.10;;;11.90;;
870;SDS011;422;51.280;7.236;2023-11-18T09:43:28;19.33;;;11.93;;
870;SDS011;422;51.280;7.236;2023-11-18T09:46:01;19.30;;;13.50;;
870;SDS011;422;51.280;7.236;2023-11-18T09:48:33;17.17;;;11.63;;
870;SDS011;422;51.280;7.236;2023-11-18T09:51:06;17.40;;;11.83;;
870;SDS011;422;51.280;7.236;2023-11-18T09:53:35;20.50;;;12.83;;
870;SDS011;422;51.280;7.236;2023-11-18T09:56:07;16.67;;;11.80;;
870;SDS011;422;51.280;7.236;2023-11-18T09:58:45;24.50;;;13.37;;
870;SDS011;422;51.280;7.236;2023-11-18T10:01:21;18.70;;;12.70;;
870;SDS011;422;51.280;7.236;2023-11-18T10:03:53;16.87;;;12.37;;
870;SDS011;422;51.280;7.236;2023-11-18T10:06:23;15.83;;;11.90;;
870;SDS011;422;51.280;7.236;2023-11-18T10:08:53;14.93;;;11.97;;
870;SDS011;422;51.280;7.236;2023-11-18T10:11:21;18.97;;;13.27;;
870;SDS011;422;51.280;7.236;2023-11-18T10:13:49;15.50;;;11.10;;
870;SDS011;422;51.280;7.236;2023-11-18T10:16:16;15.10;;;10.30;;
870;SDS011;422;51.280;7.236;2023-11-18T10:18:45;17.70;;;11.07;;
870;SDS011;422;51.280;7.236;2023-11-18T10:21:17;16.87;;;11.30;;
870;SDS011;422;51.280;7.236;2023-11-18T10:24:04;12.50;;;9.67;;
870;SDS011;422;51.280;7.236;2023-11-18T10:26:40;13.53;;;10.30;;
870;SDS011;422;51.280;7.236;2023-11-18T10:29:10;14.17;;;11.10;;
870;SDS011;422;51.280;7.236;2023-11-18T10:31:38;13.73;;;11.00;;
870;SDS011;422;51.280;7.236;2023-11-18T10:34:12;12.63;;;9.83;;
870;SDS011;422;51.280;7.236;2023-11-18T10:36:41;13.87;;;10.20;;
870;SDS011;422;51.280;7.236;2023-11-18T10:39:27;13.07;;;10.60;;
870;SDS011;422;51.280;7.236;2023-11-18T10:41:58;14.93;;;9.40;;
870;SDS011;422;51.280;7.236;2023-11-18T10:44:26;13.83;;;8.87;;
870;SDS011;422;51.280;7.236;2023-11-18T10:46:54;12.40;;;9.20;;
870;SDS011;422;51.280;7.236;2023-11-18T10:49:25;14.63;;;11.20;;
870;SDS011;422;51.280;7.236;2023-11-18T10:51:54;13.10;;;9.87;;
870;SDS011;422;51.280;7.236;2023-11-18T10:54:23;12.87;;;9.00;;
870;SDS011;422;51.280;7.236;2023-11-18T10:56:51;13.23;;;10.83;;
870;SDS011;422;51.280;7.236;2023-11-18T10:59:24;11.13;;;9.10;;
870;SDS011;422;51.280;7.236;2023-11-18T11:01:52;13.70;;;8.63;;
870;SDS011;422;51.280;7.236;2023-11-18T11:04:23;11.60;;;9.43;;
870;SDS011;422;51.280;7.236;2023-11-18T11:06:52;17.17;;;9.80;;
870;SDS011;422;51.280;7.236;2023-11-18T11:09:21;12.47;;;9.03;;
870;SDS011;422;51.280;7.236;2023-11-18T11:11:53;13.40;;;9.33;;
870;SDS011;422;51.280;7.236;2023-11-18T11:14:25;13.67;;;9.43;;
870;SDS011;422;51.280;7.236;2023-11-18T11:17:00;17.63;;;10.87;;
870;SDS011;422;51.280;7.236;2023-11-18T11:19:38;11.70;;;8.50;;
870;SDS011;422;51.280;7.236;2023-11-18T11:22:15;22.17;;;10.80;;
870;SDS011;422;51.280;7.236;2023-11-18T11:24:53;15.40;;;11.80;;
870;SDS011;422;51.280;7.236;2023-11-18T11:27:28;11.37;;;9.00;;
870;SDS011;422;51.280;7.236;2023-11-18T11:30:07;15.00;;;9.67;;
870;SDS011;422;51.280;7.236;2023-11-18T11:32:44;11.40;;;8.70;;
870;SDS011;422;51.280;7.236;2023-11-18T11:35:19;11.20;;;9.33;;
870;SDS011;422;51.280;7.236;2023-11-18T11:37:52;12.33;;;9.07;;
870;SDS011;422;51.280;7.236;2023-11-18T11:40:28;12.60;;;9.20;;
870;SDS011;422;51.280;7.236;2023-11-18T11:42:56;13.27;;;9.90;;
870;SDS011;422;51.280;7.236;2023-11-18T11:45:26;14.43;;;9.27;;
870;SDS011;422;51.280;7.236;2023-11-18T11:47:56;11.00;;;8.50;;
870;SDS011;422;51.280;7.236;2023-11-18T11:50:43;9.50;;;8.23;;
870;SDS011;422;51.280;7.236;2023-11-18T11:53:25;11.87;;;9.17;;
870;SDS011;422;51.280;7.236;2023-11-18T11:55:56;12.23;;;9.90;;
870;SDS011;422;51.280;7.236;2023-11-18T11:58:33;14.20;;;9.60;;
870;SDS011;422;51.280;7.236;2023-11-18T12:01:03;10.87;;;8.30;;
870;SDS011;422;51.280;7.236;2023-11-18T12:03:45;13.17;;;9.07;;
870;SDS011;422;51.280;7.236;2023-11-18T12:06:17;11.60;;;8.50;;
870;SDS011;422;51.280;7.236;2023-11-18T12:08:50;12.60;;;8.37;;
870;SDS011;422;51.280;7.236;2023-11-18T12:11:18;12.70;;;9.23;;
870;SDS011;422;51.280;7.236;2023-11-18T12:14:03;12.73;;;9.30;;
870;SDS011;422;51.280;7.236;2023-11-18T12:19:29;10.90;;;8.23;;
870;SDS011;422;51.280;7.236;2023-11-18T12:22:01;10.03;;;7.90;;
870;SDS011;422;51.280;7.236;2023-11-18T12:24:39;10.33;;;8.20;;
870;SDS011;422;51.280;7.236;2023-11-18T12:27:08;12.53;;;8.63;;
870;SDS011;422;51.280;7.236;2023-11-18T12:29:41;10.53;;;8.80;;
870;SDS011;422;51.280;7.236;2023-11-18T12:32:09;10.63;;;7.57;;
870;SDS011;422;51.280;7.236;2023-11-18T12:34:51;10.23;;;7.87;;
870;SDS011;422;51.280;7.236;2023-11-18T12:43:17;11.83;;;7.53;;
870;SDS011;422;51.280;7.236;2023-11-18T12:46:08;10.90;;;7.97;;
870;SDS011;422;51.280;7.236;2023-11-18T12:49:02;12.03;;;8.67;;
870;SDS011;422;51.280;7.236;2023-11-18T12:51:30;14.87;;;9.67;;
870;SDS011;422;51.280;7.236;2023-11-18T12:54:02;13.17;;;10.37;;
870;SDS011;422;51.280;7.236;2023-11-18T12:56:33;29.40;;;18.50;;
870;SDS011;422;51.280;7.236;2023-11-18T12:59:01;18.37;;;12.53;;
870;SDS011;422;51.280;7.236;2023-11-18T13:01:31;15.10;;;10.97;;
870;SDS011;422;51.280;7.236;2023-11-18T13:04:01;15.27;;;10.83;;
870;SDS011;422;51.280;7.236;2023-11-18T13:06:28;17.00;;;11.80;;
870;SDS011;422;51.280;7.236;2023-11-18T13:08:56;23.27;;;11.80;;
870;SDS011;422;51.280;7.236;2023-11-18T13:11:24;16.63;;;10.47;;
870;SDS011;422;51.280;7.236;2023-11-18T13:13:54;17.50;;;11.17;;
870;SDS011;422;51.280;7.236;2023-11-18T13:16:22;22.20;;;13.20;;
870;SDS011;422;51.280;7.236;2023-11-18T13:18:51;16.83;;;12.77;;
870;SDS011;422;51.280;7.236;2023-11-18T13:21:20;11.87;;;9.33;;
870;SDS011;422;51.280;7.236;2023-11-18T13:23:49;11.47;;;8.70;;
870;SDS011;422;51.280;7.236;2023-11-18T13:26:19;15.80;;;10.10;;
870;SDS011;422;51.280;7.236;2023-11-18T13:28:48;14.07;;;9.90;;
870;SDS011;422;51.280;7.236;2023-11-18T13:31:17;11.50;;;7.93;;
870;SDS011;422;51.280;7.236;2023-11-18T13:33:46;13.47;;;9.53;;
870;SDS011;422;51.280;7.236;2023-11-18T13:36:14;12.17;;;7.87;;
870;SDS011;422;51.280;7.236;2023-11-18T13:38:41;11.47;;;6.73;;
870;SDS011;422;51.280;7.236;2023-11-18T13:41:09;16.47;;;8.70;;
870;SDS011;422;51.280;7.236;2023-11-18T13:43:41;14.50;;;8.93;;
870;SDS011;422;51.280;7.236;2023-11-18T13:46:12;15.23;;;9.77;;
870;SDS011;422;51.280;7.236;2023-11-18T13:48:41;13.90;;;9.77;;
870;SDS011;422;51.280;7.236;2023-11-18T13:51:14;14.97;;;9.20;;
870;SDS011;422;51.280;7.236;2023-11-18T13:53:44;11.40;;;7.90;;
870;SDS011;422;51.280;7.236;2023-11-18T13:56:12;10.17;;;7.80;;
870;SDS011;422;51.280;7.236;2023-11-18T13:58:42;12.50;;;7.40;;
870;SDS011;422;51.280;7.236;2023-11-18T14:01:11;12.07;;;8.80;;
870;SDS011;422;51.280;7.236;2023-11-18T14:03:39;9.23;;;6.20;;
870;SDS011;422;51.280;7.236;2023-11-18T14:06:09;8.53;;;6.83;;
870;SDS011;422;51.280;7.236;2023-11-18T14:08:37;10.40;;;6.60;;
870;SDS011;422;51.280;7.236;2023-11-18T14:11:05;9.60;;;7.77;;
870;SDS011;422;51.280;7.236;2023-11-18T14:13:34;12.03;;;7.30;;
870;SDS011;422;51.280;7.236;2023-11-18T14:16:02;10.50;;;6.50;;
870;SDS011;422;51.280;7.236;2023-11-18T14:18:34;12.47;;;7.70;;
870;SDS011;422;51.280;7.236;2023-11-18T14:21:04;10.10;;;7.67;;
870;SDS011;422;51.280;7.236;2023-11-18T14:23:32;8.80;;;6.37;;
870;SDS011;422;51.280;7.236;2023-11-18T14:25:59;10.03;;;7.57;;
870;SDS011;422;51.280;7.236;2023-11-18T14:28:27;14.27;;;6.80;;
870;SDS011;422;51.280;7.236;2023-11-18T14:30:56;10.23;;;6.90;;
870;SDS011;422;51.280;7.236;2023-11-18T14:33:24;9.80;;;5.90;;
870;SDS011;422;51.280;7.236;2023-11-18T14:35:51;11.20;;;5.73;;
870;SDS011;422;51.280;7.236;2023-11-18T14:38:20;9.40;;;6.53;;
870;SDS011;422;51.280;7.236;2023-11-18T14:40:47;9.70;;;6.60;;
870;SDS011;422;51.280;7.236;2023-11-18T14:43:14;11.30;;;6.03;;
870;SDS011;422;51.280;7.236;2023-11-18T14:45:41;7.97;;;4.97;;
870;SDS011;422;51.280;7.236;2023-11-18T14:48:08;9.97;;;5.90;;
870;SDS011;422;51.280;7.236;2023-11-18T14:50:36;7.87;;;5.67;;
870;SDS011;422;51.280;7.236;2023-11-18T14:53:05;8.60;;;5.87;;
870;SDS011;422;51.280;7.236;2023-11-18T14:55:34;7.40;;;5.17;;
870;SDS011;422;51.280;7.236;2023-11-18T14:58:02;9.27;;;5.10;;
870;SDS011;422;51.280;7.236;2023-11-18T15:00:30;7.97;;;5.47;;
870;SDS011;422;51.280;7.236;2023-11-18T15:02:58;7.10;;;5.00;;
870;SDS011;422;51.280;7.236;2023-11-18T15:05:26;8.27;;;5.60;;
870;SDS011;422;51.280;7.236;2023-11-18T15:07:54;7.70;;;5.77;;
870;SDS011;422;51.280;7.236;2023-11-18T15:10:23;10.53;;;5.40;;
870;SDS011;422;51.280;7.236;2023-11-18T15:12:53;8.33;;;5.67;;
870;SDS011;422;51.280;7.236;2023-11-18T15:15:23;7.97;;;5.43;;
870;SDS011;422;51.280;7.236;2023-11-18T15:17:56;10.37;;;6.10;;
870;SDS011;422;51.280;7.236;2023-11-18T15:20:24;7.40;;;5.40;;
870;SDS011;422;51.280;7.236;2023-11-18T15:22:52;8.57;;;6.10;;
870;SDS011;422;51.280;7.236;2023-11-18T15:25:19;10.60;;;6.70;;
870;SDS011;422;51.280;7.236;2023-11-18T15:27:47;12.57;;;6.93;;
870;SDS011;422;51.280;7.236;2023-11-18T15:30:16;12.00;;;8.40;;
870;SDS011;422;51.280;7.236;2023-11-18T15:32:44;9.97;;;7.33;;
870;SDS011;422;51.280;7.236;2023-11-18T15:35:12;8.70;;;6.50;;
870;SDS011;422;51.280;7.236;2023-11-18T15:37:42;10.87;;;8.13;;
870;SDS011;422;51.280;7.236;2023-11-18T15:40:11;13.00;;;11.33;;
870;SDS011;422;51.280;7.236;2023-11-18T15:42:40;11.93;;;8.70;;